الصفحة الرئيسية
METAR-TAF:

METAR-TAF

مطار :

Puerto Cabezas, نيكاراغوا

دائرة عرض: 14-03N, خط طول: 083-22W, ارتفاع: 20 متر

مراقبة الطقس الحالي

تاريخ ووقت الإصدار 12 دقيقة قبل الساعة 22:00UTC
ريح 6 عقدة من الشرق/الشمال الشرقي
درجة الحرارة 29°درجة مئوية
الرطوبة 79%
ضغط 1009 hPa
الرؤية: 7000 متر
غيوم متفرقة على ارتفاع 1600 قدم
العجاج

METAR: MNPC 132200Z 07006KT 7000 SCT016 29/25 Q1009 HZ

زمن: 16:12 (22:12 UTC)

توقعات

تاريخ ووقت الإصدار 6ساعات و 27 دقيقة قبل الساعة 15:45UTC
التوقعات صالحة من13 الساعة 18 UTC إلى 14 الساعة 18 UTC
ريح 10 عقدة من الشرق/الشمال الشرقي
الرؤية: 6000 متر
غيوم مفككة على ارتفاع 1600 قدم
غيوم متفرقة على ارتفاع 10000 قدم
أصبح
من 14 الساعة 03 UTC إلى 14 الساعة 05 UTC
ريح 16 عقدة من الشمال/الشمال الشرقي
الرؤية: 7000 متر
غيوم متفرقة على ارتفاع 1800 قدم
العجاج
مؤقت
من 14 الساعة 06 UTC إلى 14 الساعة 14 UTC
ريح 12 عقدة من الشمال الشرقي
الرؤية: 5000 متر
غيوم مفككة على ارتفاع 1700 قدم

TAF: MNPC 131545Z 1318/1418 06010KT 6000 VCRA/-DZ BKN016 SCT100 BECMG 1403/1405 03016KT 7000 HZ SCT018 TEMPO 1406/1414 04012KT 5000 VCRA/-DZ BKN017

أرصاد الطقس والتوقعات من أكثر من 4000 مطار (تقارير الطقس للمطار METAR والتنبؤ بالطقس بالمطارTAF).

المحطات المتاحة هي النقط الصفراء والحمراء على الخريطة.

حرك المؤشر فوق النقطة لمعرفة اسم المحطة.

ثم انقر لمعرفة أرصاد وتوقعات الطقس.

لتغيير الخارطة: اضغط على الأزرار الخضراء مع رمز الصليب الأسود للتكبير. على الزر الأخضر مع شرطة للتصغير، أو على الأسهم الخضراء للخرائط المجاورة.


METAR-TAF: